createdAt,value
2018-07-13T07:15:39.855Z,98365.56
2018-07-13T07:16:44.174Z,98366.19
2018-07-13T07:17:46.869Z,98368.89
2018-07-13T07:18:49.340Z,98369.90
2018-07-13T07:19:51.814Z,98366.58
2018-07-13T07:20:54.582Z,98364.33
2018-07-13T07:21:57.284Z,98368.19
2018-07-13T07:22:59.779Z,98364.22
2018-07-13T07:24:02.884Z,98369.31
2018-07-13T07:25:05.339Z,98366.14
2018-07-13T07:26:07.786Z,98369.58
2018-07-13T07:27:10.525Z,98363.28
2018-07-13T07:28:12.977Z,98366.29
2018-07-13T07:29:15.419Z,98368.89
2018-07-13T07:30:21.425Z,98371.39
2018-07-13T07:31:24.908Z,98364.73
2018-07-13T07:32:27.339Z,98369.73
2018-07-13T07:33:30.219Z,98367.64
2018-07-13T07:34:32.662Z,98372.84
2018-07-13T07:35:35.149Z,98367.38
2018-07-13T07:36:37.619Z,98368.86
2018-07-13T07:37:40.658Z,98366.90
2018-07-13T07:38:43.124Z,98367.91
2018-07-13T07:39:46.058Z,98368.91
2018-07-13T07:40:48.513Z,98362.34
2018-07-13T07:41:51.012Z,98367.59
2018-07-13T07:42:53.576Z,98366.32
2018-07-13T07:43:56.046Z,98295.55
2018-07-13T07:44:58.599Z,98365.13
2018-07-13T07:46:01.429Z,98362.22
2018-07-13T07:47:03.891Z,98367.86
2018-07-13T07:48:06.374Z,98362.19
2018-07-13T07:49:08.845Z,98361.72
2018-07-13T07:50:11.595Z,98367.39
2018-07-13T07:51:14.122Z,98365.20
2018-07-13T07:52:16.963Z,98365.28
2018-07-13T07:53:19.401Z,98366.48
2018-07-13T07:54:21.921Z,98365.86
2018-07-13T07:55:24.462Z,98365.39
2018-07-13T07:56:26.957Z,98369.69
2018-07-13T07:57:29.672Z,98366.55
2018-07-13T07:58:32.428Z,98357.95
2018-07-13T07:59:34.956Z,98356.08
2018-07-13T08:00:37.447Z,98363.03
2018-07-13T08:01:40.016Z,98359.89
2018-07-13T08:02:42.521Z,98361.23
2018-07-13T08:03:44.976Z,98353.39
2018-07-13T08:04:47.767Z,98354.02
2018-07-13T08:05:50.211Z,98354.95
2018-07-13T08:06:53.785Z,98354.93
2018-07-13T08:07:55.848Z,98353.27
2018-07-13T08:08:58.300Z,98358.30
2018-07-13T08:10:00.784Z,98355.17
2018-07-13T08:11:04.567Z,98359.33
2018-07-13T08:12:08.015Z,98353.70
2018-07-13T08:13:11.225Z,98356.24
2018-07-13T08:14:14.669Z,98354.65
2018-07-13T08:15:16.870Z,98363.05
2018-07-13T08:16:19.344Z,98358.34
2018-07-13T08:17:23.298Z,98356.56
2018-07-13T08:18:25.822Z,98360.67
2018-07-13T08:19:28.807Z,98361.13
2018-07-13T08:20:31.301Z,98360.41
2018-07-13T08:21:34.582Z,98363.05
2018-07-13T08:22:37.128Z,98363.75
2018-07-13T08:23:40.116Z,98355.66
2018-07-13T08:24:42.612Z,98359.31
2018-07-13T08:25:45.127Z,98359.72
2018-07-13T08:26:47.635Z,98353.35
2018-07-13T08:27:50.140Z,98361.42
2018-07-13T08:28:52.618Z,98354.76
2018-07-13T08:29:55.424Z,98355.16
2018-07-13T08:30:58.018Z,98358.75
2018-07-13T08:32:00.515Z,98353.31
2018-07-13T08:33:03.291Z,98355.64
2018-07-13T08:34:05.811Z,98355.66
2018-07-13T08:35:08.943Z,98350.89
2018-07-13T08:36:11.739Z,98355.75
2018-07-13T08:37:14.239Z,98356.20
2018-07-13T08:38:16.760Z,98358.18
2018-07-13T08:39:19.222Z,98294.99
2018-07-13T08:40:21.719Z,98354.02
2018-07-13T08:41:24.234Z,98353.85
2018-07-13T08:42:27.104Z,98355.12
2018-07-13T08:43:29.595Z,98356.38
2018-07-13T08:44:32.984Z,98348.84
2018-07-13T08:45:35.478Z,98305.34
2018-07-13T08:46:38.525Z,98294.16
2018-07-13T08:47:41.939Z,98309.13
2018-07-13T08:48:45.491Z,98354.42
2018-07-13T08:49:49.606Z,98292.09
2018-07-13T08:50:52.111Z,98345.81
2018-07-13T08:51:54.692Z,98349.66
2018-07-13T08:52:57.187Z,98349.82
2018-07-13T08:54:00.398Z,98345.02
2018-07-13T08:55:03.230Z,98339.22
2018-07-13T08:56:06.423Z,98328.84
2018-07-13T08:57:09.558Z,98336.98
2018-07-13T08:58:12.785Z,98348.75
2018-07-13T08:59:18.336Z,98345.81
2018-07-13T09:00:20.788Z,98350.98
2018-07-13T09:01:23.537Z,98348.07
2018-07-13T09:02:26.007Z,98351.97
2018-07-13T09:03:28.429Z,98345.89
2018-07-13T09:04:30.929Z,98345.83
2018-07-13T09:05:33.381Z,98344.80
2018-07-13T09:06:36.529Z,98357.39
2018-07-13T09:07:39.328Z,98353.05
2018-07-13T09:08:41.843Z,98348.56
2018-07-13T09:09:44.308Z,98292.78
2018-07-13T09:10:46.869Z,98354.16
2018-07-13T09:11:49.374Z,98347.52
2018-07-13T09:12:53.902Z,98346.72
2018-07-13T09:13:56.729Z,98349.80
2018-07-13T09:14:59.190Z,98355.91
2018-07-13T09:16:02.413Z,98351.14
2018-07-13T09:17:08.099Z,98352.70
2018-07-13T09:18:10.604Z,98351.08
2018-07-13T09:19:13.042Z,98354.69
2018-07-13T09:20:19.552Z,98351.19
2018-07-13T09:21:23.544Z,98352.34
2018-07-13T09:22:26.120Z,98355.83
2018-07-13T09:23:28.614Z,98347.48
2018-07-13T09:24:31.190Z,98345.47
2018-07-13T09:25:33.640Z,98351.32
2018-07-13T09:26:36.585Z,98351.42
2018-07-13T09:27:39.043Z,98341.58
2018-07-13T09:28:41.481Z,98348.70
2018-07-13T09:29:43.949Z,98344.57
2018-07-13T09:30:46.391Z,98350.20
2018-07-13T09:31:48.832Z,98348.19
2018-07-13T09:32:51.912Z,98356.38
2018-07-13T09:33:54.502Z,98348.18
2018-07-13T09:34:56.988Z,98347.78
2018-07-13T09:35:59.421Z,98358.00
2018-07-13T09:37:01.875Z,98348.25
2018-07-13T09:38:04.413Z,98349.52
2018-07-13T09:39:06.958Z,98348.58
2018-07-13T09:40:11.234Z,98348.58
2018-07-13T09:41:13.678Z,98346.84
2018-07-13T09:42:16.142Z,98307.61
2018-07-13T09:43:18.883Z,98344.53
2018-07-13T09:44:21.329Z,98342.43
2018-07-13T09:45:23.856Z,98344.52
2018-07-13T09:46:26.353Z,98348.88
2018-07-13T09:47:28.810Z,98343.00
2018-07-13T09:48:31.260Z,98346.21
2018-07-13T09:49:35.027Z,98349.75
2018-07-13T09:50:37.558Z,98347.18
2018-07-13T09:51:40.066Z,98346.61
2018-07-13T09:52:42.725Z,98345.27
2018-07-13T09:53:45.189Z,98352.81
2018-07-13T09:54:47.694Z,98352.89
2018-07-13T09:55:50.742Z,98355.95
2018-07-13T09:56:53.173Z,98352.89
2018-07-13T09:57:55.683Z,98357.47
2018-07-13T09:58:58.899Z,98355.66
2018-07-13T10:00:01.335Z,98354.80
2018-07-13T10:01:03.784Z,98356.59
2018-07-13T10:02:07.229Z,98287.50
2018-07-13T10:03:09.715Z,98357.86
2018-07-13T10:04:12.259Z,98352.52
2018-07-13T10:05:15.726Z,98358.23
2018-07-13T10:06:18.220Z,98360.25
2018-07-13T10:07:20.714Z,98351.67
2018-07-13T10:08:23.568Z,98354.62
2018-07-13T10:09:26.011Z,98351.38
2018-07-13T10:10:28.532Z,98350.80
2018-07-13T10:11:30.992Z,98353.70
2018-07-13T10:12:33.442Z,98354.09
2018-07-13T10:13:35.946Z,98360.20
2018-07-13T10:14:38.717Z,98349.59
2018-07-13T10:15:41.167Z,98355.44
2018-07-13T10:16:43.641Z,98354.73
2018-07-13T10:17:46.084Z,98353.01
2018-07-13T10:18:48.552Z,98354.91
2018-07-13T10:19:51.126Z,98351.31
2018-07-13T10:20:54.977Z,98355.67
2018-07-13T10:21:57.944Z,98358.64
2018-07-13T10:23:00.351Z,98361.42
2018-07-13T10:24:02.788Z,98354.34
2018-07-13T10:25:05.362Z,98360.95
2018-07-13T10:26:08.596Z,98302.82
2018-07-13T10:27:11.363Z,98359.14
2018-07-13T10:28:13.837Z,98356.72
2018-07-13T10:29:16.362Z,98351.97
2018-07-13T10:30:18.881Z,98356.15
2018-07-13T10:31:21.378Z,98361.48
2018-07-13T10:32:23.845Z,98358.41
2018-07-13T10:33:27.468Z,98358.80
2018-07-13T10:34:30.845Z,98361.47
2018-07-13T10:35:33.410Z,98355.66
2018-07-13T10:36:35.897Z,98360.72
2018-07-13T10:37:38.366Z,98355.03
2018-07-13T10:38:40.840Z,98353.13
2018-07-13T10:39:45.238Z,98351.62
2018-07-13T10:40:49.047Z,98355.05
2018-07-13T10:41:51.617Z,98354.22
2018-07-13T10:42:54.136Z,98350.92
2018-07-13T10:43:56.669Z,98355.26
2018-07-13T10:44:59.109Z,98346.74
2018-07-13T10:46:03.145Z,98344.87
2018-07-13T10:47:05.554Z,98351.73
2018-07-13T10:48:08.008Z,98354.27
2018-07-13T10:49:10.457Z,98348.02
2018-07-13T10:50:14.218Z,98350.97
2018-07-13T10:51:16.735Z,98351.91
2018-07-13T10:52:19.638Z,98346.50
2018-07-13T10:53:22.153Z,98348.70
2018-07-13T10:54:24.637Z,98352.70
2018-07-13T10:55:28.027Z,98347.43
2018-07-13T10:56:30.520Z,98351.37
2018-07-13T10:57:32.953Z,98346.31
2018-07-13T10:58:35.840Z,98343.87
2018-07-13T10:59:38.391Z,98348.67
2018-07-13T11:03:31.985Z,98343.25
2018-07-13T11:04:34.431Z,98344.44
2018-07-13T11:05:37.187Z,98343.69
2018-07-13T11:06:39.863Z,98341.64
2018-07-13T19:24:12.550Z,98255.94
2018-07-13T19:25:15.230Z,98253.92
2018-07-13T19:26:18.716Z,98254.16
2018-07-13T19:27:21.205Z,98253.63
2018-07-13T19:28:23.722Z,98252.70
2018-07-13T19:29:27.584Z,98200.95
2018-07-13T19:30:31.104Z,98262.31
2018-07-13T19:31:34.485Z,98257.66
2018-07-13T19:32:46.527Z,98255.68
2018-07-13T19:33:49.040Z,98262.10
2018-07-13T19:34:51.610Z,98264.30
2018-07-13T19:35:54.627Z,98266.66
2018-07-13T19:36:57.297Z,98205.62
2018-07-13T19:38:00.448Z,98267.88
2018-07-13T19:39:03.949Z,98270.52
2018-07-13T19:40:06.626Z,98270.98
2018-07-13T19:41:11.569Z,98272.20
2018-07-13T19:42:17.308Z,98279.28
2018-07-13T19:43:20.845Z,98277.95
2018-07-13T19:44:25.091Z,98276.54
2018-07-13T19:45:27.786Z,98248.03
2018-07-13T19:46:31.390Z,98276.54
2018-07-13T19:47:34.111Z,98280.44
2018-07-13T19:48:42.549Z,98282.53
2018-07-13T19:49:46.603Z,98279.86
2018-07-13T19:50:49.100Z,98280.16
2018-07-13T19:51:52.366Z,98280.36
2018-07-13T19:52:56.414Z,98285.23
2018-07-13T19:53:58.896Z,98289.92
2018-07-13T19:55:01.787Z,98284.29
2018-07-13T19:56:05.162Z,98285.91
2018-07-13T19:57:07.686Z,98291.95
2018-07-13T19:58:10.267Z,98289.56
2018-07-13T19:59:13.450Z,98286.78
2018-07-13T20:00:15.961Z,98291.26
2018-07-13T20:01:19.430Z,98290.71
2018-07-13T20:02:23.187Z,98288.80
2018-07-13T20:03:25.682Z,98293.67
2018-07-13T20:04:28.169Z,98288.22
2018-07-13T20:05:30.711Z,98283.27
2018-07-13T20:06:33.279Z,98285.47
2018-07-13T20:07:38.541Z,98286.02
2018-07-13T20:09:47.935Z,98282.87
2018-07-13T20:10:50.490Z,98291.75
2018-07-13T20:11:53.564Z,98290.42
2018-07-13T20:12:56.239Z,98290.23
2018-07-13T20:13:59.259Z,98286.22
2018-07-13T20:16:11.415Z,98293.19
2018-07-13T20:17:17.659Z,98297.20
2018-07-13T20:18:20.232Z,98300.55
2018-07-13T20:20:32.411Z,98294.34
2018-07-13T20:21:34.909Z,98295.56
2018-07-13T20:22:38.369Z,98291.67
2018-07-13T20:23:40.849Z,98300.27
2018-07-13T20:24:44.986Z,98301.14
2018-07-13T22:07:30.677Z,98269.05
2018-07-13T22:08:34.402Z,98329.08
2018-07-13T22:09:37.784Z,98334.66
2018-07-13T22:10:40.653Z,98329.38
2018-07-13T22:11:43.130Z,98330.04
2018-07-13T22:12:46.160Z,98332.25
2018-07-13T22:13:49.889Z,98331.81
2018-07-13T22:14:52.496Z,98327.41
2018-07-13T22:15:55.391Z,98332.21
2018-07-13T22:16:58.586Z,98338.21
2018-07-13T22:18:01.902Z,98335.94
